x

8454049 - Quonset Point, Ri (qptr1) Weather Station

12:30am - Thu 21st Aug 2014 All times are EDT. -4 hours from GMT.

  • Wind
    8mph, 9mph gusts
  • Sea Temp 73°f
  • 空気 Temp 67°f
  • Sea Pressure 1017mb
  • 8454049 - Quonset Point, Ri
  • 8454049 - Quonset Point, Ri

More Historic Weather Station data

Upgrade to MSW Pro to gain access to the past 30 days of data for over 8000 Wavebouys and Weather Stations around the globe.

Join Pro

Comparision Forecast

View Surf forecast
   
Thu 08/21 12:30am 8 9 mph 1017mb 73f 67f
12:18am 7
mph
1017.1mb 73f 68f
12:12am 6 8 mph 1017mb 73f 68f
12:06am 6 8 mph 1017mb 73f 68f
Wed 08/20 11:54pm 5 7 mph 1017.1mb 73f 68f
11:48pm 2 3 mph 1017.1mb 72f 67f
11:36pm 2 3 mph 1017.2mb 72f 66f
11:30pm 3
mph
1017.2mb 73f 65f
11:24pm 2
mph
1017.2mb 73f 66f
11:18pm 2 3 mph 1017.2mb 73f 66f
11:12pm 2 3 mph 1017.2mb 73f 66f
11:06pm 3
mph
1017.2mb 73f 66f
11:00pm 2
mph
1017.1mb 73f 66f
10:54pm 2
mph
1017.1mb 73f 67f
10:48pm 2 3 mph 1017.2mb 73f 67f
10:42pm 2 3 mph 1017.2mb 73f 67f
10:36pm 2
mph
1017.2mb 73f 67f
10:30pm 2 3 mph 1017.1mb 73f 67f
10:24pm 3
mph
1017.1mb 73f 67f
10:18pm 2
mph
1017.2mb 73f 67f
10:12pm 2 3 mph 1017.1mb 73f 67f
10:06pm 3 5 mph 1017.1mb 73f 68f
10:00pm 5 6 mph 1017.2mb 73f 68f
9:54pm 2
mph
1017.1mb 72f 68f
9:48pm 2
mph
1017.1mb 72f 69f
9:42pm  -  2 mph 1017.1mb 72f 69f
9:36pm 1 2 mph 1017.1mb 72f 69f
9:30pm 1 2 mph 1017.1mb 71f 69f
9:24pm 2
mph
1017mb 71f 69f
9:18pm 2 3 mph 1016.9mb 71f 69f
9:12pm 2 3 mph 1016.9mb 71f 69f
9:06pm 2 3 mph 1016.8mb 71f 69f
9:00pm 3 5 mph 1016.8mb 71f 69f
8:54pm 5 6 mph 1016.9mb 71f 69f
8:48pm 5 7 mph 1017mb 71f 69f
8:42pm 6 7 mph 1017.1mb 71f 69f
8:36pm 6
mph
1017mb 71f 69f
8:30pm 6
mph
1017mb 71f 69f
8:24pm 6 7 mph 1017mb 71f 69f
8:18pm 6
mph
1016.9mb 71f 69f
8:12pm 5 6 mph 1016.8mb 71f 69f
8:06pm 6 7 mph 1016.8mb 72f 69f
Mon 08/18 1:30pm 6 10 mph 1009.1mb 71f 73f
1:24pm 8 15 mph 1009.2mb 71f 74f
1:18pm 8 13 mph 1009.2mb 71f 73f
1:12pm 11 14 mph 1009.3mb 71f 74f
1:06pm 7 16 mph 1009.4mb 71f 74f
1:00pm 9 14 mph 1009.4mb 71f 73f
12:54pm 9 13 mph 1009.4mb 71f 73f
12:48pm 10 15 mph 1009.5mb 71f 73f
12:42pm 9 15 mph 1009.6mb 71f 73f
12:36pm 11 14 mph 1009.5mb 71f 73f
12:30pm 5 11 mph 1009.5mb 71f 73f
12:24pm 7 11 mph 1009.5mb 71f 74f
12:18pm 9 16 mph 1009.5mb 71f 73f
12:12pm 10 16 mph 1009.6mb 71f 73f
12:06pm 11 21 mph 1009.6mb 71f 74f
12:00pm 13 18 mph 1009.6mb 71f 73f
11:54am 9 13 mph 1009.6mb 71f 73f
11:48am 7 8 mph 1009.6mb 71f 70f
11:42am 7 9 mph 1009.7mb 71f 70f
11:36am 6
mph
1009.9mb 71f 70f
11:30am 6 8 mph 1010mb 71f 69f
11:24am 7 8 mph 1010mb 71f 70f
11:18am 8 15 mph 1010.1mb 71f 72f
11:12am 9 13 mph 1010.1mb 71f 73f
11:06am 7 10 mph 1010.2mb 71f 72f
11:00am 5 10 mph 1010.3mb 71f 71f
10:54am 3 5 mph 1010.2mb 71f 71f
10:48am 2 5 mph 1010.2mb 71f 73f
10:42am 2 6 mph 1010.3mb 71f 72f
10:36am 3 9 mph 1010.3mb 71f 71f
10:30am 6 11 mph 1010.4mb 71f 71f
10:24am 7 9 mph 1010.4mb 71f 71f
10:18am 9 11 mph 1010.5mb 71f 72f
10:12am 5 9 mph 1010.5mb 71f 71f
10:06am 5 13 mph 1010.5mb 71f 71f
10:00am 9 13 mph 1010.4mb 71f 70f
9:54am 9 11 mph 1010.5mb 71f 71f
9:48am 8 10 mph 1010.4mb 71f 70f
9:42am 5 10 mph 1010.4mb 71f 70f
9:36am 6 10 mph 1010.4mb 71f 70f
9:30am 7 11 mph 1010.4mb 71f 69f
9:24am 10 13 mph 1010.4mb 70f 69f
9:18am 8 13 mph 1010.5mb 70f 69f
9:12am 11 15 mph 1010.4mb 70f 68f
9:06am 10 17 mph 1010.5mb 70f 68f
9:00am 10 14 mph 1010.6mb 70f 68f
8:54am 10 14 mph 1010.6mb 70f 68f
8:48am 10 14 mph 1010.5mb 70f 67f
8:42am 11 15 mph 1010.5mb 70f 67f
8:36am 10 15 mph 1010.5mb 70f 67f
8:30am 8 14 mph 1010.4mb 70f 67f
8:24am 7 11 mph 1010.4mb 70f 67f
8:18am 8 10 mph 1010.4mb 70f 67f
8:12am 8 11 mph 1010.4mb 70f 66f
8:06am 7 10 mph 1010.4mb 70f 66f
8:00am 9 10 mph 1010.4mb 70f 65f
7:54am 7 11 mph 1010.4mb 70f 65f
7:48am 9 13 mph 1010.4mb 70f 65f
7:42am 11 15 mph 1010.4mb 70f 65f
7:36am 9 14 mph 1010.3mb 70f 65f
7:30am 7 11 mph 1010.2mb 70f 64f
7:24am 11 15 mph 1010.3mb 70f 64f
7:18am 10 14 mph 1010.3mb 70f 64f
7:12am 11 13 mph 1010.2mb 70f 63f
7:06am 10 13 mph 1010.2mb 70f 63f
7:00am 8 10 mph 1010.3mb 70f 63f
6:54am 8 13 mph 1010.3mb 70f 62f
6:48am 9 15 mph 1010.4mb 70f 62f
6:42am 10 13 mph 1010.3mb 70f 62f
6:36am 9 13 mph 1010.3mb 70f 62f
6:30am 8 13 mph 1010.3mb 70f 62f
6:24am 8 10 mph 1010.2mb 70f 62f
6:18am 9 14 mph 1010.2mb 71f 62f
6:12am 10 14 mph 1010.1mb 71f 62f
6:06am 9 11 mph 1010.1mb 71f 62f
6:00am 10 13 mph 1010mb 71f 62f
5:54am 9 11 mph 1009.9mb 71f 62f
5:48am 8 10 mph 1009.9mb 71f 62f
5:42am 10 13 mph 1009.8mb 71f 62f
5:36am 8 11 mph 1009.8mb 71f 62f
5:30am 8 10 mph 1009.9mb 71f 62f
5:24am 8 11 mph 1009.9mb 71f 62f
5:18am 8 10 mph 1009.8mb 71f 62f
5:12am 9 11 mph 1009.8mb 71f 63f
5:06am 8 11 mph 1009.7mb 71f 62f
5:00am 9 11 mph 1009.7mb 71f 63f
4:54am 8 11 mph 1009.7mb 71f 63f
4:48am 8 13 mph 1009.7mb 71f 63f
4:42am 8 10 mph 1009.7mb 71f 63f
4:36am 9 14 mph 1009.7mb 71f 63f
4:30am 8 10 mph 1009.6mb 71f 63f
4:24am 7 11 mph 1009.6mb 71f 63f
4:18am 9 11 mph 1009.5mb 71f 63f
4:12am 9 10 mph 1009.4mb 71f 63f
4:06am 7 10 mph 1009.4mb 71f 63f
4:00am 8 10 mph 1009.5mb 71f 63f
3:54am 7 9 mph 1009.5mb 71f 63f
3:48am 7 11 mph 1009.5mb 71f 63f
3:42am 8 11 mph 1009.4mb 71f 63f
3:36am 8 13 mph 1009.5mb 71f 63f
3:30am 8 11 mph 1009.5mb 71f 63f
3:24am 8 11 mph 1009.4mb 71f 63f
3:18am 9 14 mph 1009.4mb 71f 63f
3:12am 8 10 mph 1009.5mb 71f 63f
3:06am 8 11 mph 1009.5mb 71f 63f
3:00am 9 13 mph 1009.5mb 71f 63f
2:54am 8 11 mph 1009.5mb 71f 63f
2:48am 7 10 mph 1009.6mb 71f 63f
2:42am 7 10 mph 1009.6mb 71f 63f
2:36am 8 10 mph 1009.7mb 71f 64f
2:30am 7 9 mph 1009.7mb 71f 64f
2:24am 7 9 mph 1009.7mb 71f 64f
2:18am 6 9 mph 1009.7mb 71f 64f
2:12am 7 9 mph 1009.7mb 71f 64f
2:06am 7 9 mph 1009.8mb 71f 65f
2:00am 7 9 mph 1009.8mb 71f 65f
1:54am 6 9 mph 1009.7mb 71f 65f
1:48am 6 9 mph 1009.7mb 71f 65f
1:42am 7 9 mph 1009.7mb 71f 65f
1:36am 7 8 mph 1009.7mb 71f 65f
1:30am 5 8 mph 1009.8mb 71f 65f
1:24am 6 8 mph 1009.8mb 71f 65f
1:18am 6 7 mph 1009.8mb 71f 65f
1:12am 6 9 mph 1009.8mb 71f 65f
1:06am 7 9 mph 1009.8mb 71f 65f
1:00am 6 8 mph 1009.9mb 71f 65f
12:54am 7 9 mph 1010mb 71f 65f
12:48am 6 8 mph 1010mb 71f 66f
12:42am 7 8 mph 1010mb 71f 66f
12:36am 6 9 mph 1010mb 71f 66f
12:30am 6 8 mph 1010.1mb - 66f
12:24am 6 7 mph 1010.2mb - 66f
12:18am 6 7 mph 1010.2mb 71f 67f
12:12am 6 8 mph 1010.2mb 71f 67f
12:06am 5 7 mph 1010.2mb 71f 67f
12:00am 5 6 mph 1010.3mb 71f 67f
Sun 08/17 11:54pm 5 6 mph 1010.2mb 71f 67f
11:48pm 3 6 mph 1010.3mb 71f 67f
11:42pm 5 8 mph 1010.3mb 71f 68f
11:36pm 6 8 mph 1010.3mb 71f 68f
11:30pm 5 7 mph 1010.3mb 71f 67f
11:24pm 6 7 mph 1010.2mb 71f 68f
11:18pm 5 6 mph 1010.3mb 71f 67f
11:12pm 5 7 mph 1010.3mb 71f 68f
11:06pm 7 8 mph 1010.3mb 71f 68f
11:00pm 6 8 mph 1010.2mb 71f 68f
10:54pm 6 10 mph 1010.2mb 71f 69f
10:48pm 8 10 mph 1010.1mb 71f 69f
10:42pm 9 11 mph 1010mb 71f 69f
10:36pm 8 10 mph 1010mb 71f 69f
10:30pm 8 10 mph 1010mb 71f 69f
10:24pm 7 9 mph 1010mb 71f 69f
10:18pm 8 9 mph 1010mb 71f 69f
10:12pm 8 9 mph 1010mb 71f 70f
10:06pm 7 9 mph 1010mb 71f 70f
10:00pm 8 9 mph 1010mb 71f 70f
9:54pm 8 9 mph 1010.1mb 71f 70f
9:48pm 8 9 mph 1010.1mb 71f 70f
9:42pm 7 10 mph 1010.1mb 71f 70f
9:36pm 7 9 mph 1010mb 71f 70f
9:30pm 7 8 mph 1010mb 71f 71f
9:24pm 6 8 mph 1009.9mb 71f 71f
9:18pm 6 8 mph 1009.9mb 71f 71f
9:12pm 7 9 mph 1009.9mb 71f 71f
9:06pm 8 9 mph 1009.9mb 71f 72f
9:00pm 7 10 mph 1009.9mb 71f 72f
8:54pm 8 9 mph 1009.8mb 71f 72f
8:48pm 7 9 mph 1009.8mb 71f 72f
8:42pm 6 9 mph 1009.7mb 71f 73f
8:36pm 8 10 mph 1009.6mb 71f 73f
8:30pm 7 10 mph 1009.5mb 71f 73f
8:24pm 6 10 mph 1009.4mb 71f 73f
8:18pm 7 8 mph 1009.2mb 71f 73f
8:12pm 6 9 mph 1009.1mb 71f 74f
8:06pm 6 8 mph 1009mb 71f 74f
8:00pm 6 8 mph 1008.9mb 71f 74f
7:54pm 6 10 mph 1008.9mb 71f 74f
7:48pm 5 8 mph 1008.9mb 71f 74f
7:42pm 6 8 mph 1008.9mb 71f 74f
7:36pm 7 9 mph 1008.8mb 71f 74f
7:30pm 8 10 mph 1008.8mb 71f 75f
7:24pm 6 9 mph 1008.7mb 71f 75f
7:18pm 7 9 mph 1008.6mb 71f 75f
7:12pm 6 8 mph 1008.5mb 71f 76f
7:06pm 7 10 mph 1008.5mb 71f 76f
7:00pm 6 8 mph 1008.4mb 71f 76f
6:54pm 8 13 mph 1008.3mb 71f 77f
6:48pm 9 14 mph 1008.2mb 71f 77f
6:42pm 7 14 mph 1008.2mb 71f 78f
6:36pm 10 15 mph 1008.2mb 71f 78f
6:30pm 11 16 mph 1008.2mb 71f 78f
6:24pm 13 16 mph 1008.2mb 71f 78f
6:18pm 9 13 mph 1008.2mb 71f 77f
6:12pm 7 11 mph 1008.2mb 71f 78f
6:06pm 9 13 mph 1008.2mb 71f 77f
6:00pm 7 10 mph 1008.2mb 71f 78f
5:54pm 8 14 mph 1008.2mb 71f 78f
5:48pm 10 14 mph 1008.3mb 71f 77f
5:42pm 10 15 mph 1008.3mb 71f 77f
5:36pm 13 16 mph 1008.3mb 71f 77f
5:30pm 8 14 mph 1008.3mb 71f 77f
5:24pm 11 16 mph 1008.3mb 71f 77f
5:18pm 14 18 mph 1008.2mb 71f 78f
5:12pm 13 16 mph 1008.1mb 71f 78f
5:06pm 9 11 mph 1008.1mb 71f 78f
5:00pm 10 14 mph 1008.1mb 71f 77f
4:54pm 9 15 mph 1008mb 71f 76f
4:48pm 10 15 mph 1008mb 71f 77f
4:42pm 10 13 mph 1008mb 70f 78f
4:36pm 8 14 mph 1008mb 70f 77f
4:30pm 10 15 mph 1007.9mb 70f 76f
4:24pm 10 13 mph 1008mb 70f 76f
4:18pm 14 16 mph 1008mb 71f 78f
4:12pm 9 11 mph 1008mb 71f 77f
4:06pm 10 13 mph 1008.1mb 71f 76f
4:00pm 9 10 mph 1008mb 71f 77f
3:54pm 9 10 mph 1008.1mb 71f 76f
3:48pm 9 10 mph 1008.1mb 71f 76f
3:42pm 9 10 mph 1008.1mb 71f 76f
3:36pm 8 10 mph 1008.2mb 71f 76f
3:30pm 10 11 mph 1008.3mb 71f 76f
3:24pm 8 10 mph 1008.4mb 71f 76f
3:18pm 9 10 mph 1008.4mb 71f 75f
3:12pm 8 10 mph 1008.4mb 71f 76f
3:06pm 9 13 mph 1008.4mb 71f 76f
3:00pm 8 16 mph 1008.4mb 71f 77f
2:54pm 11 15 mph 1008.4mb 71f 76f
2:48pm 11 15 mph 1008.4mb 71f 76f
2:42pm 6 10 mph 1008.4mb 71f 77f
2:36pm 8 13 mph 1008.5mb 71f 76f
2:30pm 10 13 mph 1008.5mb 71f 77f
2:24pm 9 14 mph 1008.5mb 71f 76f
2:18pm 11 15 mph 1008.5mb 71f 76f
2:12pm 11 15 mph 1008.5mb 71f 76f
2:06pm 8 13 mph 1008.5mb 71f 76f
2:00pm 8 10 mph 1008.5mb 71f 76f
1:54pm 9 13 mph 1008.5mb 71f 76f
1:48pm 10 15 mph 1008.5mb 71f 76f
1:42pm 13 16 mph 1008.5mb 71f 76f
1:36pm 13 15 mph 1008.5mb 72f 77f
1:30pm 9 13 mph 1008.4mb 72f 77f
1:24pm 10 13 mph 1008.4mb 72f 78f
1:18pm 10 14 mph 1008.4mb 72f 76f
1:12pm 10 14 mph 1008.5mb 72f 76f
1:06pm 10 14 mph 1008.5mb 72f 76f
1:00pm 13 16 mph 1008.6mb 72f 76f
12:54pm 13 15 mph 1008.6mb 72f 76f
12:48pm 11 14 mph 1008.6mb 72f 76f
12:42pm 11 14 mph 1008.6mb 72f 76f
12:36pm 9 13 mph 1008.6mb 72f 77f
12:30pm 9 11 mph 1008.8mb 72f 76f
12:24pm 9 10 mph 1008.8mb 72f 76f
12:18pm 8 14 mph 1008.9mb 72f 77f
12:12pm 10 14 mph 1009mb 72f 76f
12:06pm 10 14 mph 1009mb 71f 76f
12:00pm 9 14 mph 1009.1mb 71f 75f
11:54am 10 13 mph 1009.1mb 71f 75f
11:48am 6 13 mph 1009.2mb 71f 76f
11:42am 11 14 mph 1009.3mb 71f 75f
11:36am 7 11 mph 1009.3mb 71f 75f
11:30am 10 13 mph 1009.4mb 71f 75f
11:24am 14 15 mph 1009.5mb 71f 74f
11:18am 6 9 mph 1009.5mb 71f 75f
11:12am 9 14 mph 1009.6mb 71f 74f
11:06am 8 11 mph 1009.7mb 71f 74f
11:00am 8 10 mph 1009.8mb 71f 74f
10:54am 9 11 mph 1009.8mb 71f 74f
10:48am 8 11 mph 1009.8mb 71f 74f
10:42am 10 13 mph 1009.8mb 71f 73f
10:36am 9 13 mph 1009.9mb 71f 73f
10:30am 10 14 mph 1009.8mb 71f 73f
10:24am 13 15 mph 1009.9mb 71f 73f
10:18am 13 15 mph 1009.9mb 71f 73f
10:12am 13 15 mph 1009.9mb 71f 73f
10:06am 10 15 mph 1010mb 71f 73f
10:00am 14 20 mph 1010mb 71f 73f
9:54am 16 18 mph 1009.9mb 71f 73f
9:48am 14 20 mph 1009.9mb 71f 73f
9:42am 14 18 mph 1009.9mb 71f 73f
9:36am 15 17 mph 1009.9mb 71f 73f
9:30am 15 17 mph 1010mb 71f 73f
9:24am 13 14 mph 1010.2mb 71f 73f
9:18am 11 17 mph 1010.2mb 71f 72f
9:12am 13 16 mph 1010.3mb 71f 72f
9:06am 14 16 mph 1010.3mb 71f 72f
9:00am 13 17 mph 1010.2mb 71f 72f
8:54am 15 16 mph 1010.2mb 70f 71f
8:48am 11 15 mph 1010.4mb 70f 71f
8:42am 11 16 mph 1010.3mb 70f 71f
8:36am 14 16 mph 1010.4mb 70f 71f
8:30am 11 14 mph 1010.5mb 70f 71f
8:24am 10 15 mph 1010.5mb 70f 70f
8:18am 10 14 mph 1010.6mb 70f 71f
8:12am 13 16 mph 1010.6mb 70f 70f
8:06am 14 17 mph 1010.5mb 70f 70f
8:00am 11 14 mph 1010.5mb 70f 70f
7:54am 13 16 mph 1010.5mb 70f 70f
7:48am 11 14 mph 1010.6mb 70f 69f
7:42am 10 11 mph 1010.7mb 70f 68f
7:36am 10
mph
1010.7mb 70f 68f
7:30am 9 10 mph 1010.8mb 70f 68f
7:24am 8 9 mph 1010.7mb 70f 67f
7:18am 9
mph
1010.7mb 70f 67f
7:12am 8 9 mph 1010.7mb 70f 67f
7:06am 8 9 mph 1010.7mb 70f 67f
7:00am 9
mph
1010.6mb 70f 67f
6:54am 8 9 mph 1010.5mb 70f 67f
6:48am 9
mph
1010.4mb 70f 67f
6:42am 8 10 mph 1010.4mb 70f 67f
6:36am 9
mph
1010.5mb 70f 66f
6:30am 9 10 mph 1010.6mb 70f 66f
6:24am 8 9 mph 1010.6mb 70f 66f
6:18am 8
mph
1010.6mb 70f 66f
6:12am 7 8 mph 1010.7mb 70f 66f
6:06am 7 9 mph 1010.6mb 70f 66f
6:00am 8 10 mph 1010.7mb 70f 66f
5:54am 8 9 mph 1010.8mb 70f 66f
5:48am 8 9 mph 1010.9mb 70f 66f
5:42am 8 10 mph 1010.9mb 70f 66f
5:36am 8 10 mph 1011.1mb 70f 66f
5:30am 8 10 mph 1011mb 70f 66f